sensor_id;sensor_type;location;lat;lon;timestamp;P1;durP1;ratioP1;P2;durP2;ratioP2
84311;SDS011;74490;52.148;7.940;2024-02-26T00:01:19;4.20;;;1.10;;
84311;SDS011;74490;52.148;7.940;2024-02-26T00:03:44;2.27;;;1.07;;
84311;SDS011;74490;52.148;7.940;2024-02-26T00:06:10;3.42;;;1.02;;
84311;SDS011;74490;52.148;7.940;2024-02-26T00:08:36;2.58;;;1.00;;
84311;SDS011;74490;52.148;7.940;2024-02-26T00:11:01;2.03;;;1.10;;
84311;SDS011;74490;52.148;7.940;2024-02-26T00:13:26;2.22;;;1.30;;
84311;SDS011;74490;52.148;7.940;2024-02-26T00:15:51;2.40;;;1.00;;
84311;SDS011;74490;52.148;7.940;2024-02-26T00:18:16;2.55;;;1.00;;
84311;SDS011;74490;52.148;7.940;2024-02-26T00:20:41;3.28;;;1.13;;
84311;SDS011;74490;52.148;7.940;2024-02-26T00:23:08;2.10;;;1.08;;
84311;SDS011;74490;52.148;7.940;2024-02-26T00:25:33;4.18;;;1.10;;
84311;SDS011;74490;52.148;7.940;2024-02-26T00:27:58;2.58;;;1.00;;
84311;SDS011;74490;52.148;7.940;2024-02-26T00:30:23;3.65;;;1.02;;
84311;SDS011;74490;52.148;7.940;2024-02-26T00:32:48;3.75;;;1.00;;
84311;SDS011;74490;52.148;7.940;2024-02-26T00:35:13;2.20;;;1.00;;
84311;SDS011;74490;52.148;7.940;2024-02-26T00:37:40;2.33;;;0.93;;
84311;SDS011;74490;52.148;7.940;2024-02-26T00:40:08;2.85;;;1.20;;
84311;SDS011;74490;52.148;7.940;2024-02-26T00:42:33;2.10;;;1.20;;
84311;SDS011;74490;52.148;7.940;2024-02-26T00:44:59;1.45;;;0.90;;
84311;SDS011;74490;52.148;7.940;2024-02-26T00:47:24;1.67;;;0.87;;
84311;SDS011;74490;52.148;7.940;2024-02-26T00:49:49;2.05;;;0.90;;
84311;SDS011;74490;52.148;7.940;2024-02-26T00:52:14;1.50;;;0.80;;
84311;SDS011;74490;52.148;7.940;2024-02-26T00:54:39;2.40;;;1.13;;
84311;SDS011;74490;52.148;7.940;2024-02-26T00:57:04;3.40;;;0.93;;
84311;SDS011;74490;52.148;7.940;2024-02-26T00:59:30;1.95;;;1.00;;
84311;SDS011;74490;52.148;7.940;2024-02-26T01:01:55;2.35;;;0.93;;
84311;SDS011;74490;52.148;7.940;2024-02-26T01:04:20;2.13;;;0.90;;
84311;SDS011;74490;52.148;7.940;2024-02-26T01:06:45;1.05;;;0.60;;
84311;SDS011;74490;52.148;7.940;2024-02-26T01:09:10;1.48;;;0.88;;
84311;SDS011;74490;52.148;7.940;2024-02-26T01:11:35;2.17;;;1.08;;
84311;SDS011;74490;52.148;7.940;2024-02-26T01:14:01;1.60;;;0.75;;
84311;SDS011;74490;52.148;7.940;2024-02-26T01:16:26;1.40;;;0.80;;
84311;SDS011;74490;52.148;7.940;2024-02-26T01:18:54;2.08;;;0.88;;
84311;SDS011;74490;52.148;7.940;2024-02-26T01:21:19;1.33;;;0.88;;
84311;SDS011;74490;52.148;7.940;2024-02-26T01:23:44;1.63;;;0.90;;
84311;SDS011;74490;52.148;7.940;2024-02-26T01:26:09;2.20;;;1.08;;
84311;SDS011;74490;52.148;7.940;2024-02-26T01:28:34;2.00;;;0.90;;
84311;SDS011;74490;52.148;7.940;2024-02-26T01:31:00;2.30;;;1.02;;
84311;SDS011;74490;52.148;7.940;2024-02-26T01:33:25;2.30;;;1.10;;
84311;SDS011;74490;52.148;7.940;2024-02-26T01:35:51;1.65;;;0.88;;
84311;SDS011;74490;52.148;7.940;2024-02-26T01:38:16;1.40;;;0.70;;
84311;SDS011;74490;52.148;7.940;2024-02-26T01:40:41;2.00;;;0.83;;
84311;SDS011;74490;52.148;7.940;2024-02-26T01:43:06;2.00;;;0.80;;
84311;SDS011;74490;52.148;7.940;2024-02-26T01:45:31;1.90;;;0.87;;
84311;SDS011;74490;52.148;7.940;2024-02-26T01:47:56;4.53;;;0.80;;
84311;SDS011;74490;52.148;7.940;2024-02-26T01:50:22;1.77;;;0.90;;
84311;SDS011;74490;52.148;7.940;2024-02-26T01:52:47;2.47;;;0.80;;
84311;SDS011;74490;52.148;7.940;2024-02-26T01:55:14;2.22;;;0.80;;
84311;SDS011;74490;52.148;7.940;2024-02-26T01:57:40;1.10;;;0.70;;
84311;SDS011;74490;52.148;7.940;2024-02-26T02:00:05;1.88;;;0.80;;
84311;SDS011;74490;52.148;7.940;2024-02-26T02:02:32;2.15;;;0.80;;
84311;SDS011;74490;52.148;7.940;2024-02-26T02:04:57;2.00;;;0.90;;
84311;SDS011;74490;52.148;7.940;2024-02-26T02:07:22;1.83;;;0.80;;
84311;SDS011;74490;52.148;7.940;2024-02-26T02:09:47;1.60;;;0.70;;
84311;SDS011;74490;52.148;7.940;2024-02-26T02:12:13;1.20;;;0.70;;
84311;SDS011;74490;52.148;7.940;2024-02-26T02:14:38;1.70;;;0.80;;
84311;SDS011;74490;52.148;7.940;2024-02-26T02:17:03;1.20;;;0.68;;
84311;SDS011;74490;52.148;7.940;2024-02-26T02:19:28;3.00;;;0.90;;
84311;SDS011;74490;52.148;7.940;2024-02-26T02:21:54;2.05;;;0.90;;
84311;SDS011;74490;52.148;7.940;2024-02-26T02:24:19;1.70;;;0.80;;
84311;SDS011;74490;52.148;7.940;2024-02-26T02:26:44;1.80;;;0.80;;
84311;SDS011;74490;52.148;7.940;2024-02-26T02:29:09;2.00;;;0.80;;
84311;SDS011;74490;52.148;7.940;2024-02-26T02:31:35;1.70;;;0.88;;
84311;SDS011;74490;52.148;7.940;2024-02-26T02:34:00;1.40;;;0.70;;
84311;SDS011;74490;52.148;7.940;2024-02-26T02:36:25;2.85;;;0.95;;
84311;SDS011;74490;52.148;7.940;2024-02-26T02:38:51;1.10;;;0.70;;
84311;SDS011;74490;52.148;7.940;2024-02-26T02:41:16;1.83;;;0.75;;
84311;SDS011;74490;52.148;7.940;2024-02-26T02:43:41;2.22;;;0.80;;
84311;SDS011;74490;52.148;7.940;2024-02-26T02:46:06;1.48;;;0.70;;
84311;SDS011;74490;52.148;7.940;2024-02-26T02:48:32;1.00;;;0.70;;
84311;SDS011;74490;52.148;7.940;2024-02-26T02:50:57;1.60;;;0.90;;
84311;SDS011;74490;52.148;7.940;2024-02-26T02:53:22;2.50;;;0.87;;
84311;SDS011;74490;52.148;7.940;2024-02-26T02:55:47;1.52;;;0.77;;
84311;SDS011;74490;52.148;7.940;2024-02-26T02:58:12;1.10;;;0.60;;
84311;SDS011;74490;52.148;7.940;2024-02-26T03:00:37;1.03;;;0.80;;
84311;SDS011;74490;52.148;7.940;2024-02-26T03:03:03;2.13;;;0.85;;
84311;SDS011;74490;52.148;7.940;2024-02-26T03:05:29;1.65;;;0.70;;
84311;SDS011;74490;52.148;7.940;2024-02-26T03:07:54;1.40;;;0.67;;
84311;SDS011;74490;52.148;7.940;2024-02-26T03:10:19;0.93;;;0.50;;
84311;SDS011;74490;52.148;7.940;2024-02-26T03:12:45;1.55;;;0.80;;
84311;SDS011;74490;52.148;7.940;2024-02-26T03:15:10;0.93;;;0.60;;
84311;SDS011;74490;52.148;7.940;2024-02-26T03:17:36;0.40;;;0.40;;
84311;SDS011;74490;52.148;7.940;2024-02-26T03:20:02;1.30;;;0.63;;
84311;SDS011;74490;52.148;7.940;2024-02-26T03:22:30;1.40;;;0.70;;
84311;SDS011;74490;52.148;7.940;2024-02-26T03:24:55;1.42;;;0.60;;
84311;SDS011;74490;52.148;7.940;2024-02-26T03:27:20;1.65;;;0.88;;
84311;SDS011;74490;52.148;7.940;2024-02-26T03:29:45;1.48;;;0.65;;
84311;SDS011;74490;52.148;7.940;2024-02-26T03:32:10;1.17;;;0.60;;
84311;SDS011;74490;52.148;7.940;2024-02-26T03:34:35;1.00;;;0.50;;
84311;SDS011;74490;52.148;7.940;2024-02-26T03:37:01;1.23;;;0.70;;
84311;SDS011;74490;52.148;7.940;2024-02-26T03:39:26;2.17;;;0.60;;
84311;SDS011;74490;52.148;7.940;2024-02-26T03:41:51;0.88;;;0.60;;
84311;SDS011;74490;52.148;7.940;2024-02-26T03:44:16;2.67;;;0.70;;
84311;SDS011;74490;52.148;7.940;2024-02-26T03:46:41;1.15;;;0.60;;
84311;SDS011;74490;52.148;7.940;2024-02-26T03:49:07;1.40;;;0.60;;
84311;SDS011;74490;52.148;7.940;2024-02-26T03:51:33;2.22;;;0.68;;
84311;SDS011;74490;52.148;7.940;2024-02-26T03:53:58;0.98;;;0.50;;
84311;SDS011;74490;52.148;7.940;2024-02-26T03:56:23;1.77;;;0.70;;
84311;SDS011;74490;52.148;7.940;2024-02-26T03:58:49;0.90;;;0.55;;
84311;SDS011;74490;52.148;7.940;2024-02-26T04:01:14;1.48;;;0.70;;
84311;SDS011;74490;52.148;7.940;2024-02-26T04:03:39;0.65;;;0.50;;
84311;SDS011;74490;52.148;7.940;2024-02-26T04:06:04;1.90;;;0.60;;
84311;SDS011;74490;52.148;7.940;2024-02-26T04:08:29;1.13;;;0.50;;
84311;SDS011;74490;52.148;7.940;2024-02-26T04:10:55;0.98;;;0.60;;
84311;SDS011;74490;52.148;7.940;2024-02-26T04:13:20;1.05;;;0.65;;
84311;SDS011;74490;52.148;7.940;2024-02-26T04:15:45;1.02;;;0.60;;
84311;SDS011;74490;52.148;7.940;2024-02-26T04:18:11;1.60;;;0.65;;
84311;SDS011;74490;52.148;7.940;2024-02-26T04:20:36;1.15;;;0.50;;
84311;SDS011;74490;52.148;7.940;2024-02-26T04:23:02;1.00;;;0.55;;
84311;SDS011;74490;52.148;7.940;2024-02-26T04:25:28;1.38;;;0.70;;
84311;SDS011;74490;52.148;7.940;2024-02-26T04:27:53;0.77;;;0.43;;
84311;SDS011;74490;52.148;7.940;2024-02-26T04:30:20;0.55;;;0.50;;
84311;SDS011;74490;52.148;7.940;2024-02-26T04:32:45;1.20;;;0.60;;
84311;SDS011;74490;52.148;7.940;2024-02-26T04:35:10;0.70;;;0.40;;
84311;SDS011;74490;52.148;7.940;2024-02-26T04:37:36;1.42;;;0.68;;
84311;SDS011;74490;52.148;7.940;2024-02-26T04:40:01;1.02;;;0.60;;
84311;SDS011;74490;52.148;7.940;2024-02-26T04:42:26;0.80;;;0.52;;
84311;SDS011;74490;52.148;7.940;2024-02-26T04:44:52;1.60;;;0.63;;
84311;SDS011;74490;52.148;7.940;2024-02-26T04:47:17;2.47;;;0.60;;
84311;SDS011;74490;52.148;7.940;2024-02-26T04:49:42;1.05;;;0.60;;
84311;SDS011;74490;52.148;7.940;2024-02-26T04:52:07;0.93;;;0.60;;
84311;SDS011;74490;52.148;7.940;2024-02-26T04:54:33;0.95;;;0.50;;
84311;SDS011;74490;52.148;7.940;2024-02-26T04:56:58;1.17;;;0.52;;
84311;SDS011;74490;52.148;7.940;2024-02-26T04:59:23;0.57;;;0.43;;
84311;SDS011;74490;52.148;7.940;2024-02-26T05:01:49;1.13;;;0.57;;
84311;SDS011;74490;52.148;7.940;2024-02-26T05:04:14;1.05;;;0.60;;
84311;SDS011;74490;52.148;7.940;2024-02-26T05:06:39;0.70;;;0.47;;
84311;SDS011;74490;52.148;7.940;2024-02-26T05:09:05;0.88;;;0.60;;
84311;SDS011;74490;52.148;7.940;2024-02-26T05:11:30;0.82;;;0.65;;
84311;SDS011;74490;52.148;7.940;2024-02-26T05:13:56;1.77;;;0.80;;
84311;SDS011;74490;52.148;7.940;2024-02-26T05:16:21;0.88;;;0.50;;
84311;SDS011;74490;52.148;7.940;2024-02-26T05:18:49;0.80;;;0.57;;
84311;SDS011;74490;52.148;7.940;2024-02-26T05:21:14;0.93;;;0.50;;
84311;SDS011;74490;52.148;7.940;2024-02-26T05:23:39;1.00;;;0.45;;
84311;SDS011;74490;52.148;7.940;2024-02-26T05:26:05;0.70;;;0.55;;
84311;SDS011;74490;52.148;7.940;2024-02-26T05:28:30;0.98;;;0.60;;
84311;SDS011;74490;52.148;7.940;2024-02-26T05:30:55;1.15;;;0.57;;
84311;SDS011;74490;52.148;7.940;2024-02-26T05:33:21;3.50;;;0.50;;
84311;SDS011;74490;52.148;7.940;2024-02-26T05:35:46;1.35;;;0.57;;
84311;SDS011;74490;52.148;7.940;2024-02-26T05:38:11;2.72;;;1.02;;
84311;SDS011;74490;52.148;7.940;2024-02-26T05:40:36;1.50;;;0.70;;
84311;SDS011;74490;52.148;7.940;2024-02-26T05:43:02;1.30;;;0.70;;
84311;SDS011;74490;52.148;7.940;2024-02-26T05:45:27;2.40;;;0.57;;
84311;SDS011;74490;52.148;7.940;2024-02-26T05:47:52;6.70;;;0.82;;
84311;SDS011;74490;52.148;7.940;2024-02-26T05:50:17;2.38;;;0.90;;
84311;SDS011;74490;52.148;7.940;2024-02-26T05:52:42;5.40;;;0.98;;
84311;SDS011;74490;52.148;7.940;2024-02-26T05:55:08;6.20;;;1.00;;
84311;SDS011;74490;52.148;7.940;2024-02-26T05:57:34;5.97;;;0.88;;
84311;SDS011;74490;52.148;7.940;2024-02-26T05:59:59;6.40;;;1.23;;
84311;SDS011;74490;52.148;7.940;2024-02-26T06:02:30;7.10;;;1.30;;
84311;SDS011;74490;52.148;7.940;2024-02-26T06:04:56;9.00;;;1.50;;
84311;SDS011;74490;52.148;7.940;2024-02-26T06:07:21;10.75;;;1.38;;
84311;SDS011;74490;52.148;7.940;2024-02-26T06:09:46;8.50;;;1.70;;
84311;SDS011;74490;52.148;7.940;2024-02-26T06:12:11;11.45;;;1.80;;
84311;SDS011;74490;52.148;7.940;2024-02-26T06:14:37;9.82;;;2.28;;
84311;SDS011;74490;52.148;7.940;2024-02-26T06:17:02;12.38;;;2.42;;
84311;SDS011;74490;52.148;7.940;2024-02-26T06:19:27;12.10;;;2.10;;
84311;SDS011;74490;52.148;7.940;2024-02-26T06:21:52;11.48;;;2.55;;
84311;SDS011;74490;52.148;7.940;2024-02-26T06:24:17;11.83;;;2.20;;
84311;SDS011;74490;52.148;7.940;2024-02-26T06:26:42;14.32;;;2.65;;
84311;SDS011;74490;52.148;7.940;2024-02-26T06:29:07;8.48;;;2.25;;
84311;SDS011;74490;52.148;7.940;2024-02-26T06:31:33;13.50;;;2.38;;
84311;SDS011;74490;52.148;7.940;2024-02-26T06:33:58;9.27;;;2.15;;
84311;SDS011;74490;52.148;7.940;2024-02-26T06:36:23;8.90;;;2.03;;
84311;SDS011;74490;52.148;7.940;2024-02-26T06:38:48;10.63;;;2.40;;
84311;SDS011;74490;52.148;7.940;2024-02-26T06:41:14;12.07;;;2.83;;
84311;SDS011;74490;52.148;7.940;2024-02-26T06:43:39;10.65;;;2.30;;
84311;SDS011;74490;52.148;7.940;2024-02-26T06:46:05;13.70;;;2.03;;
84311;SDS011;74490;52.148;7.940;2024-02-26T06:48:30;14.32;;;2.45;;
84311;SDS011;74490;52.148;7.940;2024-02-26T06:50:55;12.00;;;2.30;;
84311;SDS011;74490;52.148;7.940;2024-02-26T06:53:20;7.45;;;2.25;;
84311;SDS011;74490;52.148;7.940;2024-02-26T06:55:46;7.47;;;2.13;;
84311;SDS011;74490;52.148;7.940;2024-02-26T06:58:11;10.00;;;2.10;;
84311;SDS011;74490;52.148;7.940;2024-02-26T07:00:36;15.95;;;2.17;;
84311;SDS011;74490;52.148;7.940;2024-02-26T07:03:01;11.15;;;2.30;;
84311;SDS011;74490;52.148;7.940;2024-02-26T07:05:27;5.38;;;1.67;;
84311;SDS011;74490;52.148;7.940;2024-02-26T07:07:52;3.08;;;1.70;;
84311;SDS011;74490;52.148;7.940;2024-02-26T07:10:18;2.03;;;1.33;;
84311;SDS011;74490;52.148;7.940;2024-02-26T07:12:43;2.63;;;1.63;;
84311;SDS011;74490;52.148;7.940;2024-02-26T07:15:09;2.78;;;1.65;;
84311;SDS011;74490;52.148;7.940;2024-02-26T07:17:34;4.22;;;1.73;;
84311;SDS011;74490;52.148;7.940;2024-02-26T07:19:59;5.22;;;1.95;;
84311;SDS011;74490;52.148;7.940;2024-02-26T07:22:24;3.70;;;1.60;;
84311;SDS011;74490;52.148;7.940;2024-02-26T07:24:50;2.83;;;1.60;;
84311;SDS011;74490;52.148;7.940;2024-02-26T07:27:15;7.03;;;1.73;;
84311;SDS011;74490;52.148;7.940;2024-02-26T07:29:42;5.25;;;1.67;;
84311;SDS011;74490;52.148;7.940;2024-02-26T07:32:08;3.95;;;1.70;;
84311;SDS011;74490;52.148;7.940;2024-02-26T07:34:33;3.15;;;1.67;;
84311;SDS011;74490;52.148;7.940;2024-02-26T07:36:58;3.08;;;1.83;;
84311;SDS011;74490;52.148;7.940;2024-02-26T07:39:23;5.03;;;1.67;;
84311;SDS011;74490;52.148;7.940;2024-02-26T07:41:48;19.95;;;2.58;;
84311;SDS011;74490;52.148;7.940;2024-02-26T07:44:16;16.02;;;2.03;;
84311;SDS011;74490;52.148;7.940;2024-02-26T07:46:41;12.90;;;1.90;;
84311;SDS011;74490;52.148;7.940;2024-02-26T07:49:06;10.63;;;1.98;;
84311;SDS011;74490;52.148;7.940;2024-02-26T07:51:33;10.43;;;1.95;;
84311;SDS011;74490;52.148;7.940;2024-02-26T07:53:58;6.63;;;1.48;;
84311;SDS011;74490;52.148;7.940;2024-02-26T07:56:23;6.75;;;1.83;;
84311;SDS011;74490;52.148;7.940;2024-02-26T07:58:48;4.90;;;1.63;;
84311;SDS011;74490;52.148;7.940;2024-02-26T08:01:14;5.80;;;2.00;;
84311;SDS011;74490;52.148;7.940;2024-02-26T08:03:39;9.02;;;2.30;;
84311;SDS011;74490;52.148;7.940;2024-02-26T08:06:05;11.05;;;2.20;;
84311;SDS011;74490;52.148;7.940;2024-02-26T08:08:30;13.65;;;2.53;;
84311;SDS011;74490;52.148;7.940;2024-02-26T08:10:55;18.52;;;2.53;;
84311;SDS011;74490;52.148;7.940;2024-02-26T08:13:20;8.77;;;2.45;;
84311;SDS011;74490;52.148;7.940;2024-02-26T08:15:45;8.27;;;2.13;;
84311;SDS011;74490;52.148;7.940;2024-02-26T08:18:10;10.55;;;2.20;;
84311;SDS011;74490;52.148;7.940;2024-02-26T08:20:36;8.93;;;2.22;;
84311;SDS011;74490;52.148;7.940;2024-02-26T08:23:01;10.82;;;2.08;;
84311;SDS011;74490;52.148;7.940;2024-02-26T08:25:30;12.55;;;1.80;;
84311;SDS011;74490;52.148;7.940;2024-02-26T08:27:55;8.27;;;2.28;;
84311;SDS011;74490;52.148;7.940;2024-02-26T08:30:26;7.90;;;1.80;;
84311;SDS011;74490;52.148;7.940;2024-02-26T08:32:51;11.85;;;2.28;;
84311;SDS011;74490;52.148;7.940;2024-02-26T08:35:23;9.15;;;1.67;;
84311;SDS011;74490;52.148;7.940;2024-02-26T08:37:48;9.40;;;2.15;;
84311;SDS011;74490;52.148;7.940;2024-02-26T08:40:13;7.43;;;1.80;;
84311;SDS011;74490;52.148;7.940;2024-02-26T08:42:39;4.03;;;1.80;;
84311;SDS011;74490;52.148;7.940;2024-02-26T08:45:04;6.70;;;1.92;;
84311;SDS011;74490;52.148;7.940;2024-02-26T08:47:29;6.43;;;2.00;;
84311;SDS011;74490;52.148;7.940;2024-02-26T08:49:55;6.70;;;2.05;;
84311;SDS011;74490;52.148;7.940;2024-02-26T08:52:20;8.10;;;1.60;;
84311;SDS011;74490;52.148;7.940;2024-02-26T08:54:46;8.45;;;1.70;;
84311;SDS011;74490;52.148;7.940;2024-02-26T08:57:12;8.02;;;1.98;;
84311;SDS011;74490;52.148;7.940;2024-02-26T08:59:37;9.57;;;2.38;;
84311;SDS011;74490;52.148;7.940;2024-02-26T09:02:02;9.15;;;2.35;;
84311;SDS011;74490;52.148;7.940;2024-02-26T09:04:27;10.30;;;2.75;;
84311;SDS011;74490;52.148;7.940;2024-02-26T09:06:53;5.63;;;2.38;;
84311;SDS011;74490;52.148;7.940;2024-02-26T09:09:18;6.88;;;1.80;;
84311;SDS011;74490;52.148;7.940;2024-02-26T09:11:44;6.38;;;2.08;;
84311;SDS011;74490;52.148;7.940;2024-02-26T09:14:09;6.00;;;1.75;;
84311;SDS011;74490;52.148;7.940;2024-02-26T09:16:34;8.70;;;1.73;;
84311;SDS011;74490;52.148;7.940;2024-02-26T09:18:59;6.45;;;1.40;;
84311;SDS011;74490;52.148;7.940;2024-02-26T09:21:24;9.05;;;2.03;;
84311;SDS011;74490;52.148;7.940;2024-02-26T09:23:50;7.07;;;1.98;;
84311;SDS011;74490;52.148;7.940;2024-02-26T09:26:15;6.00;;;1.98;;
84311;SDS011;74490;52.148;7.940;2024-02-26T09:28:41;4.88;;;1.55;;
84311;SDS011;74490;52.148;7.940;2024-02-26T09:31:06;4.35;;;2.15;;
84311;SDS011;74490;52.148;7.940;2024-02-26T09:33:32;4.65;;;1.60;;
84311;SDS011;74490;52.148;7.940;2024-02-26T09:35:57;6.60;;;1.98;;
84311;SDS011;74490;52.148;7.940;2024-02-26T09:38:22;4.88;;;1.70;;
84311;SDS011;74490;52.148;7.940;2024-02-26T09:40:48;5.13;;;1.50;;
84311;SDS011;74490;52.148;7.940;2024-02-26T09:43:14;8.82;;;1.80;;
84311;SDS011;74490;52.148;7.940;2024-02-26T09:45:40;4.63;;;1.45;;
84311;SDS011;74490;52.148;7.940;2024-02-26T09:48:05;3.92;;;1.75;;
84311;SDS011;74490;52.148;7.940;2024-02-26T09:50:33;5.40;;;1.70;;
84311;SDS011;74490;52.148;7.940;2024-02-26T09:52:58;6.30;;;1.42;;
84311;SDS011;74490;52.148;7.940;2024-02-26T09:55:24;4.07;;;1.70;;
84311;SDS011;74490;52.148;7.940;2024-02-26T09:57:50;3.45;;;1.42;;
84311;SDS011;74490;52.148;7.940;2024-02-26T10:00:20;1.98;;;1.17;;
84311;SDS011;74490;52.148;7.940;2024-02-26T10:02:46;2.95;;;1.60;;
84311;SDS011;74490;52.148;7.940;2024-02-26T10:05:12;5.78;;;1.70;;
84311;SDS011;74490;52.148;7.940;2024-02-26T10:07:39;4.40;;;1.45;;
84311;SDS011;74490;52.148;7.940;2024-02-26T10:10:04;4.68;;;1.40;;
84311;SDS011;74490;52.148;7.940;2024-02-26T10:12:30;6.05;;;1.67;;
84311;SDS011;74490;52.148;7.940;2024-02-26T10:14:56;3.15;;;1.20;;
84311;SDS011;74490;52.148;7.940;2024-02-26T10:17:21;5.53;;;1.67;;
84311;SDS011;74490;52.148;7.940;2024-02-26T10:19:46;6.38;;;1.60;;
84311;SDS011;74490;52.148;7.940;2024-02-26T10:22:11;6.15;;;1.17;;
84311;SDS011;74490;52.148;7.940;2024-02-26T10:24:37;3.13;;;1.30;;
84311;SDS011;74490;52.148;7.940;2024-02-26T10:27:02;4.40;;;1.30;;
84311;SDS011;74490;52.148;7.940;2024-02-26T10:29:27;3.55;;;1.13;;
84311;SDS011;74490;52.148;7.940;2024-02-26T10:31:53;5.18;;;1.50;;
84311;SDS011;74490;52.148;7.940;2024-02-26T10:34:18;3.55;;;1.20;;
84311;SDS011;74490;52.148;7.940;2024-02-26T10:36:44;4.28;;;1.70;;
84311;SDS011;74490;52.148;7.940;2024-02-26T10:39:09;6.35;;;1.58;;
84311;SDS011;74490;52.148;7.940;2024-02-26T10:41:36;5.30;;;1.60;;
84311;SDS011;74490;52.148;7.940;2024-02-26T10:44:01;5.30;;;1.75;;
84311;SDS011;74490;52.148;7.940;2024-02-26T10:46:26;3.70;;;1.42;;
84311;SDS011;74490;52.148;7.940;2024-02-26T10:48:52;5.53;;;1.40;;
84311;SDS011;74490;52.148;7.940;2024-02-26T10:51:19;4.63;;;1.55;;
84311;SDS011;74490;52.148;7.940;2024-02-26T10:53:45;2.60;;;1.10;;
84311;SDS011;74490;52.148;7.940;2024-02-26T10:56:12;2.30;;;1.27;;
84311;SDS011;74490;52.148;7.940;2024-02-26T10:58:39;4.10;;;1.48;;
84311;SDS011;74490;52.148;7.940;2024-02-26T11:01:04;3.10;;;1.48;;
84311;SDS011;74490;52.148;7.940;2024-02-26T11:03:30;3.97;;;1.00;;
84311;SDS011;74490;52.148;7.940;2024-02-26T11:05:57;2.65;;;1.40;;
84311;SDS011;74490;52.148;7.940;2024-02-26T11:08:23;2.05;;;1.15;;
84311;SDS011;74490;52.148;7.940;2024-02-26T11:10:50;3.95;;;1.27;;
84311;SDS011;74490;52.148;7.940;2024-02-26T11:13:17;4.68;;;1.40;;
84311;SDS011;74490;52.148;7.940;2024-02-26T11:15:43;2.40;;;1.10;;
84311;SDS011;74490;52.148;7.940;2024-02-26T11:18:09;4.72;;;1.25;;
84311;SDS011;74490;52.148;7.940;2024-02-26T11:20:36;3.15;;;1.10;;
84311;SDS011;74490;52.148;7.940;2024-02-26T11:23:03;4.57;;;1.40;;
84311;SDS011;74490;52.148;7.940;2024-02-26T11:25:29;5.40;;;1.40;;
84311;SDS011;74490;52.148;7.940;2024-02-26T11:27:55;4.10;;;1.13;;
84311;SDS011;74490;52.148;7.940;2024-02-26T11:30:22;3.38;;;1.38;;
84311;SDS011;74490;52.148;7.940;2024-02-26T11:32:49;3.35;;;1.30;;
84311;SDS011;74490;52.148;7.940;2024-02-26T11:35:15;4.28;;;1.40;;
84311;SDS011;74490;52.148;7.940;2024-02-26T11:37:50;3.20;;;1.33;;
84311;SDS011;74490;52.148;7.940;2024-02-26T11:40:16;3.58;;;1.35;;
84311;SDS011;74490;52.148;7.940;2024-02-26T11:42:45;4.28;;;1.20;;
84311;SDS011;74490;52.148;7.940;2024-02-26T11:47:56;3.63;;;1.23;;
84311;SDS011;74490;52.148;7.940;2024-02-26T11:50:34;6.60;;;1.60;;
84311;SDS011;74490;52.148;7.940;2024-02-26T11:55:44;2.83;;;1.30;;
84311;SDS011;74490;52.148;7.940;2024-02-26T11:58:09;3.67;;;1.50;;
84311;SDS011;74490;52.148;7.940;2024-02-26T12:00:34;4.75;;;1.50;;
84311;SDS011;74490;52.148;7.940;2024-02-26T12:03:00;3.65;;;1.65;;
84311;SDS011;74490;52.148;7.940;2024-02-26T12:05:32;3.25;;;1.23;;
84311;SDS011;74490;52.148;7.940;2024-02-26T12:08:04;4.10;;;1.48;;
84311;SDS011;74490;52.148;7.940;2024-02-26T12:10:32;5.32;;;1.70;;
84311;SDS011;74490;52.148;7.940;2024-02-26T12:15:38;3.53;;;1.20;;
84311;SDS011;74490;52.148;7.940;2024-02-26T12:18:04;3.75;;;1.50;;
84311;SDS011;74490;52.148;7.940;2024-02-26T12:20:30;3.65;;;1.45;;
84311;SDS011;74490;52.148;7.940;2024-02-26T12:22:55;3.17;;;1.42;;
84311;SDS011;74490;52.148;7.940;2024-02-26T12:25:29;2.97;;;1.30;;
84311;SDS011;74490;52.148;7.940;2024-02-26T12:27:56;5.95;;;1.27;;
84311;SDS011;74490;52.148;7.940;2024-02-26T12:30:22;4.13;;;1.20;;
84311;SDS011;74490;52.148;7.940;2024-02-26T12:32:47;3.88;;;1.30;;
84311;SDS011;74490;52.148;7.940;2024-02-26T12:35:13;4.82;;;1.63;;
84311;SDS011;74490;52.148;7.940;2024-02-26T12:37:38;3.92;;;1.40;;
84311;SDS011;74490;52.148;7.940;2024-02-26T12:40:05;3.53;;;1.23;;
84311;SDS011;74490;52.148;7.940;2024-02-26T12:42:31;3.35;;;1.30;;
84311;SDS011;74490;52.148;7.940;2024-02-26T12:44:58;2.50;;;1.35;;
84311;SDS011;74490;52.148;7.940;2024-02-26T12:47:23;6.26;;;1.26;;
84311;SDS011;74490;52.148;7.940;2024-02-26T12:49:48;3.72;;;1.24;;
84311;SDS011;74490;52.148;7.940;2024-02-26T12:52:14;3.35;;;1.13;;
84311;SDS011;74490;52.148;7.940;2024-02-26T12:54:39;5.15;;;1.40;;
84311;SDS011;74490;52.148;7.940;2024-02-26T12:57:06;3.25;;;1.30;;
84311;SDS011;74490;52.148;7.940;2024-02-26T12:59:33;2.13;;;1.20;;
84311;SDS011;74490;52.148;7.940;2024-02-26T13:01:59;3.63;;;1.30;;
84311;SDS011;74490;52.148;7.940;2024-02-26T13:04:25;3.42;;;1.10;;
84311;SDS011;74490;52.148;7.940;2024-02-26T13:06:50;2.47;;;1.20;;
84311;SDS011;74490;52.148;7.940;2024-02-26T13:09:15;3.25;;;1.20;;
84311;SDS011;74490;52.148;7.940;2024-02-26T13:11:43;4.95;;;1.27;;
84311;SDS011;74490;52.148;7.940;2024-02-26T13:14:18;2.90;;;1.25;;
84311;SDS011;74490;52.148;7.940;2024-02-26T13:16:43;2.95;;;1.30;;
84311;SDS011;74490;52.148;7.940;2024-02-26T13:19:09;3.08;;;1.05;;
84311;SDS011;74490;52.148;7.940;2024-02-26T13:21:35;2.88;;;1.30;;
84311;SDS011;74490;52.148;7.940;2024-02-26T13:24:00;3.55;;;1.10;;
84311;SDS011;74490;52.148;7.940;2024-02-26T13:26:25;1.70;;;1.00;;
84311;SDS011;74490;52.148;7.940;2024-02-26T13:29:00;2.42;;;1.00;;
84311;SDS011;74490;52.148;7.940;2024-02-26T13:31:26;2.00;;;0.95;;
84311;SDS011;74490;52.148;7.940;2024-02-26T13:33:51;4.60;;;1.10;;
84311;SDS011;74490;52.148;7.940;2024-02-26T13:36:20;4.05;;;1.08;;
84311;SDS011;74490;52.148;7.940;2024-02-26T13:38:54;3.38;;;1.10;;
84311;SDS011;74490;52.148;7.940;2024-02-26T13:41:20;6.25;;;1.30;;
84311;SDS011;74490;52.148;7.940;2024-02-26T13:43:46;4.32;;;1.42;;
84311;SDS011;74490;52.148;7.940;2024-02-26T13:46:11;7.35;;;1.55;;
84311;SDS011;74490;52.148;7.940;2024-02-26T13:48:37;10.82;;;1.60;;
84311;SDS011;74490;52.148;7.940;2024-02-26T13:51:03;6.75;;;1.48;;
84311;SDS011;74490;52.148;7.940;2024-02-26T13:53:28;6.57;;;1.92;;
84311;SDS011;74490;52.148;7.940;2024-02-26T13:55:53;9.13;;;1.40;;
84311;SDS011;74490;52.148;7.940;2024-02-26T13:58:18;4.90;;;1.48;;
84311;SDS011;74490;52.148;7.940;2024-02-26T14:00:47;9.73;;;1.95;;
84311;SDS011;74490;52.148;7.940;2024-02-26T14:03:13;18.38;;;2.55;;
84311;SDS011;74490;52.148;7.940;2024-02-26T14:05:38;20.90;;;2.55;;
84311;SDS011;74490;52.148;7.940;2024-02-26T14:08:03;19.60;;;2.58;;
84311;SDS011;74490;52.148;7.940;2024-02-26T14:10:28;14.35;;;2.42;;
84311;SDS011;74490;52.148;7.940;2024-02-26T14:12:55;14.88;;;2.40;;
84311;SDS011;74490;52.148;7.940;2024-02-26T14:15:20;20.52;;;2.60;;
84311;SDS011;74490;52.148;7.940;2024-02-26T14:17:45;18.75;;;2.88;;
84311;SDS011;74490;52.148;7.940;2024-02-26T14:20:18;19.42;;;3.38;;
84311;SDS011;74490;52.148;7.940;2024-02-26T14:22:43;15.07;;;2.80;;
84311;SDS011;74490;52.148;7.940;2024-02-26T14:25:08;20.45;;;2.70;;
84311;SDS011;74490;52.148;7.940;2024-02-26T14:27:34;32.55;;;3.40;;
84311;SDS011;74490;52.148;7.940;2024-02-26T14:29:59;27.73;;;3.70;;
84311;SDS011;74490;52.148;7.940;2024-02-26T14:32:24;34.63;;;3.88;;
84311;SDS011;74490;52.148;7.940;2024-02-26T14:34:49;23.50;;;3.78;;
84311;SDS011;74490;52.148;7.940;2024-02-26T14:37:15;28.68;;;3.44;;
84311;SDS011;74490;52.148;7.940;2024-02-26T14:39:40;29.17;;;2.92;;
84311;SDS011;74490;52.148;7.940;2024-02-26T14:42:05;23.38;;;3.25;;
84311;SDS011;74490;52.148;7.940;2024-02-26T14:44:31;24.77;;;3.22;;